createdAt,value
2023-11-27T00:01:45.949Z,15.71
2023-11-27T00:06:47.965Z,15.85
2023-11-27T00:11:50.215Z,15.87
2023-11-27T00:16:54.763Z,15.68
2023-11-27T00:21:57.031Z,15.95
2023-11-27T00:26:59.074Z,15.76
2023-11-27T00:32:01.291Z,15.81
2023-11-27T00:37:03.437Z,15.99
2023-11-27T00:42:08.099Z,15.62
2023-11-27T00:47:12.518Z,15.74
2023-11-27T00:52:14.787Z,15.94
2023-11-27T00:57:18.920Z,15.73
2023-11-27T01:02:21.204Z,15.99
2023-11-27T01:07:25.852Z,15.74
2023-11-27T01:12:27.812Z,15.82
2023-11-27T01:17:34.554Z,15.98
2023-11-27T01:22:38.177Z,16.01
2023-11-27T01:27:43.090Z,15.85
2023-11-27T01:32:45.291Z,15.89
2023-11-27T01:37:49.625Z,15.67
2023-11-27T01:42:53.998Z,16.00
2023-11-27T01:47:55.973Z,15.88
2023-11-27T01:52:58.060Z,15.63
2023-11-27T01:58:00.603Z,15.87
2023-11-27T02:03:10.638Z,15.72
2023-11-27T02:08:12.575Z,15.86
2023-11-27T02:13:16.015Z,15.62
2023-11-27T02:18:18.303Z,15.78
2023-11-27T02:23:21.642Z,15.60
2023-11-27T02:28:23.752Z,15.74
2023-11-27T02:33:28.449Z,15.63
2023-11-27T02:38:30.269Z,15.82
2023-11-27T02:43:35.943Z,15.66
2023-11-27T02:48:40.189Z,15.60
2023-11-27T02:53:42.070Z,15.57
2023-11-27T02:58:48.671Z,15.68
2023-11-27T03:03:50.623Z,15.59
2023-11-27T03:08:54.929Z,15.73
2023-11-27T03:13:56.856Z,15.52
2023-11-27T03:18:59.236Z,15.52
2023-11-27T03:24:01.188Z,15.38
2023-11-27T03:29:03.364Z,15.31
2023-11-27T03:34:05.300Z,15.39
2023-11-27T03:39:12.543Z,15.46
2023-11-27T03:44:14.730Z,15.46
2023-11-27T03:49:19.121Z,15.24
2023-11-27T03:54:21.112Z,15.37
2023-11-27T03:59:23.201Z,15.29
2023-11-27T04:04:25.210Z,15.13
2023-11-27T04:09:27.248Z,15.15
2023-11-27T04:14:29.158Z,15.11
2023-11-27T04:19:31.042Z,15.14
2023-11-27T04:24:32.948Z,15.05
2023-11-27T04:29:34.855Z,14.95
2023-11-27T04:34:36.659Z,14.95
2023-11-27T04:39:38.645Z,15.08
2023-11-27T04:44:42.825Z,14.87
2023-11-27T04:49:44.972Z,14.83
2023-11-27T04:54:46.959Z,14.81
2023-11-27T04:59:49.391Z,14.98
2023-11-27T05:04:53.834Z,14.88
2023-11-27T05:09:55.918Z,14.82
2023-11-27T05:14:58.577Z,12.72
2023-11-27T05:20:01.025Z,12.74
2023-11-27T05:25:03.356Z,15.04
2023-11-27T05:30:07.562Z,15.02
2023-11-27T05:35:10.301Z,13.29
2023-11-27T05:40:13.203Z,12.37
2023-11-27T05:45:16.379Z,12.86
2023-11-27T05:50:20.264Z,15.06
2023-11-27T05:55:22.680Z,14.94
2023-11-27T06:00:26.311Z,12.34
2023-11-27T06:05:28.815Z,12.79
2023-11-27T06:10:34.125Z,14.10
2023-11-27T06:15:36.511Z,12.35
2023-11-27T06:20:38.774Z,11.79
2023-11-27T06:25:41.422Z,12.96
2023-11-27T06:30:43.597Z,13.40
2023-11-27T06:35:46.384Z,14.11
2023-11-27T06:40:49.573Z,14.28
2023-11-27T06:45:53.880Z,14.41
2023-11-27T06:50:57.057Z,14.51
2023-11-27T06:55:58.827Z,14.61
2023-11-27T07:01:00.883Z,14.78
2023-11-27T07:06:06.001Z,14.76
2023-11-27T07:11:09.742Z,14.59
2023-11-27T07:16:14.586Z,14.82
2023-11-27T07:21:16.420Z,14.63
2023-11-27T07:26:18.441Z,14.76
2023-11-27T07:31:22.817Z,14.88
2023-11-27T07:36:24.997Z,14.92
2023-11-27T07:41:29.474Z,14.98
2023-11-27T07:46:32.127Z,14.84
2023-11-27T07:51:34.532Z,14.59
2023-11-27T07:56:36.584Z,14.67
2023-11-27T08:01:38.889Z,14.84
2023-11-27T08:06:41.176Z,14.64
2023-11-27T08:11:45.542Z,14.90
2023-11-27T08:16:50.686Z,14.72
2023-11-27T08:21:52.576Z,14.84
2023-11-27T08:26:54.569Z,14.80
2023-11-27T08:31:59.821Z,14.88
2023-11-27T08:37:06.417Z,14.74
2023-11-27T08:42:08.534Z,14.71
2023-11-27T08:47:12.807Z,14.65
2023-11-27T08:52:14.716Z,14.73
2023-11-27T08:57:21.389Z,14.52
2023-11-27T09:02:25.554Z,14.74
2023-11-27T09:07:27.650Z,14.52
2023-11-27T09:12:30.712Z,14.74
2023-11-27T09:17:32.854Z,14.73
2023-11-27T09:22:34.995Z,14.74
2023-11-27T09:27:40.135Z,15.03
2023-11-27T09:32:42.246Z,14.85
2023-11-27T09:37:48.076Z,14.87
2023-11-27T09:42:50.178Z,14.69
2023-11-27T09:47:53.300Z,14.74
2023-11-27T09:52:55.993Z,14.96
2023-11-27T09:57:58.031Z,14.91
2023-11-27T10:03:04.369Z,15.04
2023-11-27T10:08:10.660Z,15.03
2023-11-27T10:13:21.765Z,14.74
2023-11-27T10:18:30.031Z,14.95
2023-11-27T10:23:34.265Z,14.89
2023-11-27T10:28:47.073Z,14.94
2023-11-27T10:33:49.078Z,15.11
2023-11-27T10:39:20.568Z,15.11
2023-11-27T10:44:23.891Z,14.74
2023-11-27T10:49:31.448Z,15.02
2023-11-27T10:54:36.486Z,14.73
2023-11-27T10:59:44.019Z,14.95
2023-11-27T11:04:53.608Z,15.01
2023-11-27T11:09:57.323Z,14.77
2023-11-27T11:15:07.855Z,14.85
2023-11-27T11:20:44.678Z,15.09
2023-11-27T11:26:30.639Z,14.86
2023-11-27T11:31:45.826Z,15.09
2023-11-27T11:36:56.354Z,15.05
2023-11-27T11:42:06.068Z,15.31
2023-11-27T11:47:32.469Z,15.66
2023-11-27T11:52:37.789Z,14.92
2023-11-27T11:57:46.153Z,15.22
2023-11-27T12:02:51.779Z,15.15
2023-11-27T12:07:54.283Z,15.13
2023-11-27T12:12:59.308Z,15.25
2023-11-27T12:18:01.666Z,15.14
2023-11-27T12:23:05.953Z,14.99
2023-11-27T12:28:08.494Z,15.24
2023-11-27T12:33:10.663Z,15.56
2023-11-27T12:38:13.067Z,15.43
2023-11-27T12:43:20.256Z,15.44
2023-11-27T12:48:23.009Z,15.42
2023-11-27T12:53:27.718Z,15.38
2023-11-27T12:58:30.067Z,15.54
2023-11-27T13:03:32.586Z,15.57
2023-11-27T13:08:34.702Z,15.52
2023-11-27T13:13:37.162Z,15.47
2023-11-27T13:18:39.087Z,15.50
2023-11-27T13:23:43.239Z,15.51
2023-11-27T13:28:45.121Z,15.43
2023-11-27T13:33:49.630Z,15.58
2023-11-27T13:38:52.549Z,15.58
2023-11-27T13:43:55.281Z,15.72
2023-11-27T13:48:57.266Z,15.49
2023-11-27T13:53:59.446Z,15.54
2023-11-27T13:59:01.628Z,15.56
2023-11-27T14:04:22.164Z,15.51
2023-11-27T14:09:43.048Z,15.29
2023-11-27T14:14:50.580Z,15.12
2023-11-27T14:20:13.390Z,15.06
2023-11-27T14:25:32.082Z,15.17
2023-11-27T14:30:34.661Z,14.71
2023-11-27T14:35:37.742Z,15.14
2023-11-27T14:40:40.118Z,14.93
2023-11-27T14:45:50.264Z,14.95
2023-11-27T14:50:55.087Z,14.80
2023-11-27T14:55:57.106Z,14.72
2023-11-27T15:01:03.486Z,14.51
2023-11-27T15:06:08.901Z,14.88
2023-11-27T15:11:12.249Z,14.77
2023-11-27T15:16:18.962Z,14.32
2023-11-27T15:21:25.673Z,14.98
2023-11-27T15:26:27.654Z,14.76
2023-11-27T15:31:32.700Z,15.00
2023-11-27T15:36:37.625Z,14.56
2023-11-27T15:41:44.377Z,14.81
2023-11-27T15:46:47.344Z,14.68
2023-11-27T15:51:51.451Z,14.37
2023-11-27T15:56:56.096Z,14.28
2023-11-27T16:07:02.764Z,14.13
2023-11-27T16:12:06.418Z,14.31
2023-11-27T16:17:09.918Z,14.22
2023-11-27T16:22:11.727Z,14.03
2023-11-27T16:27:15.114Z,13.92
2023-11-27T16:32:17.612Z,14.17
2023-11-27T16:37:25.116Z,14.20
2023-11-27T16:42:31.895Z,13.82
2023-11-27T16:47:34.144Z,13.85
2023-11-27T16:52:37.251Z,13.70
2023-11-27T16:57:39.571Z,13.71
2023-11-27T17:02:47.567Z,13.83
2023-11-27T17:07:50.637Z,13.89
2023-11-27T17:12:52.585Z,13.79
2023-11-27T17:17:54.689Z,13.63
2023-11-27T17:23:04.681Z,13.91
2023-11-27T17:28:13.910Z,13.89
2023-11-27T17:33:19.527Z,13.99
2023-11-27T17:38:21.361Z,13.63
2023-11-27T17:43:23.164Z,13.82
2023-11-27T17:48:24.948Z,13.55
2023-11-27T17:53:27.959Z,13.58
2023-11-27T17:58:29.881Z,13.73
2023-11-27T18:03:31.872Z,13.63
2023-11-27T18:08:35.859Z,13.49
2023-11-27T18:13:40.520Z,13.59
2023-11-27T18:18:42.322Z,13.53
2023-11-27T18:23:46.635Z,13.51
2023-11-27T18:28:50.651Z,13.34
2023-11-27T18:33:54.957Z,13.45
2023-11-27T18:38:57.079Z,13.35
2023-11-27T18:44:00.200Z,13.20
2023-11-27T18:49:04.022Z,13.29
2023-11-27T18:54:05.849Z,13.07
2023-11-27T18:59:07.809Z,12.99
2023-11-27T19:04:09.780Z,13.01
2023-11-27T19:09:12.175Z,13.08
2023-11-27T19:14:14.259Z,13.16
2023-11-27T19:19:16.431Z,13.00
2023-11-27T19:24:21.161Z,13.10
2023-11-27T19:29:25.730Z,12.91
2023-11-27T19:34:32.880Z,13.01
2023-11-27T19:39:35.109Z,12.83
2023-11-27T19:44:37.454Z,12.94
2023-11-27T19:49:39.660Z,12.73
2023-11-27T19:54:41.932Z,12.66
2023-11-27T19:59:46.373Z,12.84
2023-11-27T20:04:48.671Z,12.77
2023-11-27T20:09:50.852Z,12.70
2023-11-27T20:14:55.820Z,12.94
2023-11-27T20:19:58.034Z,12.60
2023-11-27T20:25:00.235Z,12.48
2023-11-27T20:30:04.473Z,12.18
2023-11-27T20:35:07.619Z,12.30
2023-11-27T20:40:15.127Z,12.42
2023-11-27T20:45:17.359Z,12.39
2023-11-27T20:50:21.666Z,12.43
2023-11-27T20:55:26.679Z,12.42
2023-11-27T21:00:28.612Z,12.14
2023-11-27T21:05:30.520Z,12.53
2023-11-27T21:10:34.310Z,12.16
2023-11-27T21:15:36.231Z,12.53
2023-11-27T21:20:38.132Z,12.45
2023-11-27T21:25:40.403Z,12.43
2023-11-27T21:30:44.533Z,12.40
2023-11-27T21:35:46.528Z,12.53
2023-11-27T21:40:51.311Z,12.34
2023-11-27T21:45:54.645Z,12.24
2023-11-27T21:50:58.988Z,12.32
2023-11-27T21:56:03.380Z,12.20
2023-11-27T22:01:16.693Z,12.01
2023-11-27T22:06:19.602Z,12.27
2023-11-27T22:11:21.407Z,12.31
2023-11-27T22:16:25.641Z,11.95
2023-11-27T22:21:27.565Z,11.92
2023-11-27T22:26:32.103Z,11.93
2023-11-27T22:31:34.115Z,11.80
2023-11-27T22:36:36.219Z,11.82
2023-11-27T22:41:44.111Z,11.55
2023-11-27T22:46:50.725Z,11.45
2023-11-27T22:51:52.612Z,11.70
2023-11-27T22:56:54.469Z,11.71
2023-11-27T23:01:56.495Z,11.71
2023-11-27T23:06:58.460Z,11.40
2023-11-27T23:12:00.404Z,11.52
2023-11-27T23:17:02.286Z,11.37
2023-11-27T23:22:04.170Z,11.47
2023-11-27T23:27:08.662Z,11.26
2023-11-27T23:32:13.022Z,11.56
2023-11-27T23:37:17.503Z,11.41
2023-11-27T23:42:19.342Z,11.75
2023-11-27T23:47:21.227Z,11.50
2023-11-27T23:52:23.198Z,11.46
2023-11-27T23:57:25.439Z,11.48
